Terminal Aerodrome Forecast
Issued by NWS Caribou, ME

Home | Current Version | Previous Version | Text Only | Print | Product List | Glossary On
Versions: 1 2 3 4 5 6 7 8 9 10 11 12 13 14 15 16 17 18 19 20 21 22 23 24 25 26 27 28 29 30 31 32 33 34
000
FTUS41 KCAR 201300 AAA
TAFCAR
TAF AMD
KCAR 201353Z 2014/2112 27009G18KT P6SM SCT025 BKN040
     FM202000 27010KT P6SM SCT250
     FM210000 25006KT P6SM BKN250
     FM211000 00000KT P6SM BKN250=

USA.gov is the U.S. government's official web portal to all federal, state and local government web resources and services.